Time;durP1;ratioP1;P1;durP2;ratioP2;P2;SDS_P1;SDS_P2;PMS_P1;PMS_P2;Temp;Humidity;BMP_temperature;BMP_pressure;BME280_temperature;BME280_humidity;BME280_pressure;Samples;Min_cycle;Max_cycle;Signal;HPM_P1;HPM_P2
2023/09/13 00:01:24;;;;;;;3.35;1.58;;;16.50;99.90;;;;;;5024257;28;20032;-84
2023/09/13 00:03:49;;;;;;;3.20;1.33;;;16.50;99.90;;;;;;5054791;28;20044;-84
2023/09/13 00:06:16;;;;;;;4.47;1.30;;;16.50;99.90;;;;;;5058379;28;20498;-84
2023/09/13 00:08:42;;;;;;;2.35;1.20;;;16.50;99.90;;;;;;5058097;28;20032;-84
2023/09/13 00:11:07;;;;;;;2.67;1.23;;;16.50;99.90;;;;;;5030940;28;20033;-84
2023/09/13 00:13:33;;;;;;;3.50;1.60;;;16.50;99.90;;;;;;5056919;28;20044;-85
2023/09/13 00:15:59;;;;;;;2.75;1.48;;;16.40;99.90;;;;;;5041571;28;20031;-84
2023/09/13 00:18:24;;;;;;;3.47;1.60;;;16.40;99.90;;;;;;5057803;28;20400;-84
2023/09/13 00:20:54;;;;;;;3.20;1.20;;;16.30;99.90;;;;;;5041168;28;20027;-84
2023/09/13 00:23:20;;;;;;;1.95;1.15;;;16.20;99.90;;;;;;5058276;28;20020;-84
2023/09/13 00:25:46;;;;;;;4.43;1.30;;;16.10;99.90;;;;;;5074244;28;20032;-84
2023/09/13 00:28:11;;;;;;;3.05;1.00;;;16.00;99.90;;;;;;5056390;28;20029;-84
2023/09/13 00:30:38;;;;;;;2.83;1.30;;;15.90;99.90;;;;;;5073261;28;20472;-84
2023/09/13 00:33:04;;;;;;;2.92;1.30;;;15.90;99.90;;;;;;5073942;28;20036;-84
2023/09/13 00:35:29;;;;;;;2.67;1.00;;;16.00;99.90;;;;;;5074610;28;20481;-85
2023/09/13 00:37:55;;;;;;;2.08;1.10;;;16.00;99.90;;;;;;5041496;28;20020;-85
2023/09/13 00:40:21;;;;;;;3.10;1.20;;;16.00;99.90;;;;;;5036790;28;20121;-85
2023/09/13 00:42:47;;;;;;;2.50;1.33;;;16.00;99.90;;;;;;5054315;28;20027;-85
2023/09/13 00:45:12;;;;;;;2.83;1.25;;;16.00;99.90;;;;;;5057921;28;20032;-84
2023/09/13 00:47:43;;;;;;;2.22;1.30;;;16.00;99.90;;;;;;5049960;28;20044;-84
2023/09/13 00:50:12;;;;;;;4.20;1.20;;;16.00;99.90;;;;;;5036620;28;20028;-84
2023/09/13 00:52:39;;;;;;;2.00;1.10;;;16.00;99.90;;;;;;5066035;28;20170;-84
2023/09/13 00:55:07;;;;;;;2.92;1.38;;;16.00;99.90;;;;;;5068066;28;20113;-85
2023/09/13 00:57:34;;;;;;;2.83;1.30;;;15.90;99.90;;;;;;5069385;28;20495;-85
2023/09/13 01:00:08;;;;;;;2.60;1.40;;;15.80;99.90;;;;;;5040438;28;20447;-84
2023/09/13 01:02:35;;;;;;;2.40;1.25;;;15.80;99.90;;;;;;5054355;28;20021;-84
2023/09/13 01:05:01;;;;;;;2.50;1.05;;;15.80;99.90;;;;;;5071361;28;20420;-84
2023/09/13 01:07:27;;;;;;;3.38;1.10;;;15.70;99.90;;;;;;5057301;28;20032;-85
2023/09/13 01:09:53;;;;;;;2.00;1.10;;;15.60;99.90;;;;;;5073431;28;20438;-85
2023/09/13 01:12:18;;;;;;;3.05;1.20;;;15.60;99.90;;;;;;5073169;28;20036;-84
2023/09/13 01:14:44;;;;;;;3.90;1.15;;;15.60;99.90;;;;;;5054960;28;20078;-85
2023/09/13 01:17:15;;;;;;;3.55;1.10;;;15.60;99.90;;;;;;5055909;28;20031;-84
2023/09/13 01:20:00;;;;;;;3.30;0.85;;;15.60;99.90;;;;;;5057037;28;20112;-84
2023/09/13 01:22:53;;;;;;;2.65;1.10;;;15.60;99.90;;;;;;5069085;28;20553;-84
2023/09/13 01:25:31;;;;;;;2.30;1.38;;;15.70;99.90;;;;;;5064660;28;20488;-84
2023/09/13 01:28:30;;;;;;;2.83;1.42;;;15.60;99.90;;;;;;5067230;28;20025;-84
2023/09/13 01:30:56;;;;;;;3.40;1.20;;;15.70;99.90;;;;;;5054365;28;20032;-84
2023/09/13 01:33:22;;;;;;;2.63;1.00;;;15.70;99.90;;;;;;5032713;28;20033;-84
2023/09/13 01:35:48;;;;;;;2.20;1.10;;;15.60;99.90;;;;;;5072062;28;20029;-84
2023/09/13 01:38:14;;;;;;;2.33;1.23;;;15.60;99.90;;;;;;5073004;28;20032;-84
2023/09/13 01:40:40;;;;;;;2.80;1.30;;;15.60;99.90;;;;;;5058305;28;20040;-84
2023/09/13 01:43:07;;;;;;;2.17;1.10;;;15.60;99.90;;;;;;5054268;28;20021;-84
2023/09/13 01:45:34;;;;;;;2.40;1.00;;;15.60;99.90;;;;;;5053972;28;20032;-84
2023/09/13 01:48:01;;;;;;;3.03;1.10;;;15.50;99.90;;;;;;5071853;28;20033;-84
2023/09/13 01:50:27;;;;;;;3.70;1.27;;;15.60;99.90;;;;;;5035973;28;20416;-85
2023/09/13 01:52:53;;;;;;;3.53;1.13;;;15.50;99.90;;;;;;5055474;28;20037;-85
2023/09/13 01:55:18;;;;;;;2.90;1.27;;;15.40;99.90;;;;;;5039049;28;20040;-84
2023/09/13 01:57:44;;;;;;;2.33;1.45;;;15.40;99.90;;;;;;5055810;28;20033;-84
2023/09/13 02:00:11;;;;;;;2.13;1.15;;;15.30;99.90;;;;;;5035751;28;20025;-84
2023/09/13 02:02:36;;;;;;;2.58;1.20;;;15.30;99.90;;;;;;5043070;28;20033;-84
2023/09/13 02:05:03;;;;;;;4.30;1.20;;;15.20;99.90;;;;;;5067583;28;20055;-84
2023/09/13 02:07:29;;;;;;;2.95;1.52;;;15.10;99.90;;;;;;5055953;28;20461;-84
2023/09/13 02:09:54;;;;;;;3.60;1.60;;;15.00;99.90;;;;;;5054921;28;20119;-84
2023/09/13 02:12:20;;;;;;;15.57;6.07;;;15.00;99.90;;;;;;5052183;28;20033;-85
2023/09/13 02:14:46;;;;;;;26.45;12.48;;;15.00;99.90;;;;;;5042957;28;20050;-85
2023/09/13 02:17:11;;;;;;;26.05;12.07;;;15.10;99.90;;;;;;5052355;28;20478;-85
2023/09/13 02:19:37;;;;;;;15.27;7.78;;;15.10;99.90;;;;;;5055842;28;20032;-85
2023/09/13 02:22:03;;;;;;;12.63;5.03;;;15.20;99.90;;;;;;5072352;28;20020;-85
2023/09/13 02:24:29;;;;;;;6.07;2.95;;;15.20;99.90;;;;;;5047268;28;20025;-85
2023/09/13 02:26:58;;;;;;;5.53;2.22;;;15.20;99.90;;;;;;5032462;28;20035;-85
2023/09/13 02:29:24;;;;;;;4.95;2.03;;;15.20;99.90;;;;;;5038601;28;20035;-85
2023/09/13 02:31:50;;;;;;;4.03;2.22;;;15.20;99.90;;;;;;5052540;28;20140;-85
2023/09/13 02:34:16;;;;;;;5.18;2.42;;;15.20;99.90;;;;;;5055609;28;20500;-86
2023/09/13 02:36:42;;;;;;;3.70;2.00;;;15.20;99.90;;;;;;5055335;28;20067;-85
2023/09/13 02:39:46;;;;;;;2.97;1.80;;;15.20;99.90;;;;;;5055754;28;20016;-85
2023/09/13 02:42:11;;;;;;;4.68;2.05;;;15.20;99.90;;;;;;5068396;28;20028;-85
2023/09/13 02:44:38;;;;;;;3.95;1.67;;;15.20;99.90;;;;;;5035054;28;20105;-85
2023/09/13 02:47:03;;;;;;;3.10;1.50;;;15.20;99.90;;;;;;5053344;28;20020;-86
2023/09/13 02:49:29;;;;;;;3.22;1.60;;;15.20;99.90;;;;;;5035942;28;20131;-85
2023/09/13 02:51:55;;;;;;;3.75;1.50;;;15.20;99.90;;;;;;5019069;28;20115;-85
2023/09/13 02:54:21;;;;;;;2.55;1.50;;;15.10;99.90;;;;;;5055407;28;20035;-85
2023/09/13 02:56:49;;;;;;;3.30;1.80;;;15.10;99.90;;;;;;5072599;28;20050;-85
2023/09/13 02:59:15;;;;;;;3.80;1.75;;;15.10;99.90;;;;;;5072701;28;20111;-85
2023/09/13 03:01:42;;;;;;;3.42;1.58;;;15.10;99.90;;;;;;5055333;28;20050;-85
2023/09/13 03:04:08;;;;;;;7.78;2.30;;;15.10;99.90;;;;;;5037535;28;20033;-85
2023/09/13 03:06:34;;;;;;;3.13;1.70;;;15.10;99.90;;;;;;5053534;28;20021;-85
2023/09/13 03:08:59;;;;;;;2.28;1.45;;;15.10;99.90;;;;;;5033267;28;20111;-85
2023/09/13 03:11:25;;;;;;;3.17;1.10;;;15.00;99.90;;;;;;5082525;28;20037;-85
2023/09/13 03:13:51;;;;;;;4.15;1.25;;;15.00;99.90;;;;;;5060152;28;22003;-85
2023/09/13 03:16:21;;;;;;;4.28;1.30;;;14.90;99.90;;;;;;5056444;28;20039;-85
2023/09/13 03:18:49;;;;;;;2.22;1.30;;;14.90;99.90;;;;;;5072083;28;20036;-86
2023/09/13 03:21:17;;;;;;;2.03;1.10;;;14.90;99.90;;;;;;5065713;28;20075;-86
2023/09/13 03:23:48;;;;;;;5.03;1.30;;;14.80;99.90;;;;;;5053479;28;20021;-86
2023/09/13 03:26:19;;;;;;;2.00;1.10;;;14.80;99.90;;;;;;5023031;28;20539;-85
2023/09/13 03:28:50;;;;;;;2.35;1.30;;;14.70;99.90;;;;;;5043064;28;20033;-86
2023/09/13 03:31:21;;;;;;;3.40;1.20;;;14.70;99.90;;;;;;5058351;28;20025;-86
2023/09/13 03:33:49;;;;;;;4.90;1.42;;;14.70;99.90;;;;;;5065268;28;20036;-85
2023/09/13 03:36:16;;;;;;;3.40;1.45;;;14.60;99.90;;;;;;5023632;28;20123;-85
2023/09/13 03:38:43;;;;;;;2.92;1.42;;;14.50;99.90;;;;;;5036868;28;20025;-86
2023/09/13 03:41:11;;;;;;;4.28;1.10;;;14.50;99.90;;;;;;5072876;28;20044;-85
2023/09/13 03:43:37;;;;;;;2.13;1.15;;;14.40;99.90;;;;;;5056321;28;20032;-86
2023/09/13 03:46:04;;;;;;;2.40;1.20;;;14.30;99.90;;;;;;5075836;28;20024;-86
2023/09/13 03:48:31;;;;;;;2.60;1.10;;;14.30;99.90;;;;;;5059181;28;20029;-85
2023/09/13 03:50:57;;;;;;;2.13;1.23;;;14.20;99.90;;;;;;5066226;28;20569;-86
2023/09/13 03:53:24;;;;;;;2.33;1.10;;;14.30;99.90;;;;;;5077993;28;20392;-86
2023/09/13 03:55:53;;;;;;;3.03;1.30;;;14.30;99.90;;;;;;5051593;28;20028;-86
2023/09/13 03:58:19;;;;;;;2.03;1.13;;;14.30;99.90;;;;;;5068110;28;20021;-86
2023/09/13 04:00:45;;;;;;;4.10;1.10;;;14.30;99.90;;;;;;5027425;28;20086;-87
2023/09/13 04:03:12;;;;;;;2.55;1.27;;;14.30;99.90;;;;;;5050982;28;20074;-86
2023/09/13 04:05:38;;;;;;;3.25;1.17;;;14.30;99.90;;;;;;5076989;28;20028;-85
2023/09/13 04:08:03;;;;;;;5.25;1.42;;;14.30;99.90;;;;;;5073733;28;20081;-86
2023/09/13 04:10:29;;;;;;;2.45;1.40;;;14.20;99.90;;;;;;5073609;28;20036;-85
2023/09/13 04:12:55;;;;;;;2.63;1.25;;;14.10;99.90;;;;;;5054781;28;20033;-86
2023/09/13 04:15:21;;;;;;;4.63;1.23;;;14.10;99.90;;;;;;5021726;28;20378;-86
2023/09/13 04:17:47;;;;;;;1.70;1.10;;;14.10;99.90;;;;;;5037161;28;20024;-86
2023/09/13 04:20:13;;;;;;;2.55;1.27;;;14.10;99.90;;;;;;5075802;28;20025;-86
2023/09/13 04:22:38;;;;;;;2.53;1.35;;;14.20;99.90;;;;;;5042883;28;20033;-86
2023/09/13 04:25:05;;;;;;;4.43;1.92;;;14.20;99.90;;;;;;5056434;28;20025;-86
2023/09/13 04:27:31;;;;;;;8.30;5.10;;;14.20;99.90;;;;;;5074522;28;20067;-84
2023/09/13 04:29:57;;;;;;;8.00;4.82;;;14.20;99.90;;;;;;5077667;28;20052;-84
2023/09/13 04:32:26;;;;;;;6.72;4.00;;;14.20;99.90;;;;;;5052990;28;20543;-84
2023/09/13 04:34:53;;;;;;;4.72;3.35;;;14.20;99.90;;;;;;5057550;28;20058;-83
2023/09/13 04:37:20;;;;;;;6.90;2.60;;;14.20;99.90;;;;;;5072380;28;20025;-83
2023/09/13 04:39:45;;;;;;;3.85;2.20;;;14.20;99.90;;;;;;5077324;28;20043;-83
2023/09/13 04:42:13;;;;;;;3.60;1.92;;;14.20;99.90;;;;;;5061252;28;20512;-82
2023/09/13 04:44:38;;;;;;;3.53;2.00;;;14.20;99.90;;;;;;5078405;28;20051;-83
2023/09/13 04:47:04;;;;;;;2.63;1.40;;;14.20;99.90;;;;;;5059062;28;20021;-83
2023/09/13 04:49:30;;;;;;;3.83;1.75;;;14.10;99.90;;;;;;5050630;28;20033;-82
2023/09/13 04:51:56;;;;;;;4.47;2.25;;;14.10;99.90;;;;;;5078697;28;20032;-82
2023/09/13 04:54:22;;;;;;;3.97;2.35;;;14.00;99.90;;;;;;5074585;28;20025;-82
2023/09/13 04:56:51;;;;;;;4.30;2.40;;;14.00;99.90;;;;;;5063445;28;20504;-82
2023/09/13 04:59:18;;;;;;;5.05;2.40;;;14.00;99.90;;;;;;5068467;28;20035;-83
2023/09/13 05:01:44;;;;;;;6.28;2.25;;;14.00;99.90;;;;;;5069191;28;20022;-83
2023/09/13 05:04:10;;;;;;;3.40;1.73;;;14.10;99.90;;;;;;5065784;28;20017;-83
2023/09/13 05:06:36;;;;;;;3.33;1.88;;;14.10;99.90;;;;;;5070781;28;20028;-82
2023/09/13 05:09:02;;;;;;;2.97;1.65;;;14.10;99.90;;;;;;5061748;28;20506;-83
2023/09/13 05:11:28;;;;;;;2.70;1.42;;;14.10;99.90;;;;;;5080021;28;20020;-82
2023/09/13 05:14:11;;;;;;;4.25;1.75;;;14.10;99.90;;;;;;5079049;28;20373;-83
2023/09/13 05:16:36;;;;;;;3.22;1.27;;;14.10;99.90;;;;;;5061601;28;20028;-83
2023/09/13 05:19:02;;;;;;;2.83;1.58;;;14.10;99.90;;;;;;5078855;28;20050;-82
2023/09/13 05:21:28;;;;;;;3.17;1.33;;;14.10;99.90;;;;;;5061347;28;20028;-83
2023/09/13 05:23:53;;;;;;;2.05;1.27;;;14.10;99.90;;;;;;5078077;28;20477;-82
2023/09/13 05:26:19;;;;;;;2.92;1.73;;;14.20;99.90;;;;;;5043323;28;20036;-83
2023/09/13 05:28:45;;;;;;;5.32;1.90;;;14.20;99.90;;;;;;5055084;28;20021;-83
2023/09/13 05:31:11;;;;;;;6.35;2.20;;;14.30;99.90;;;;;;5080449;28;20098;-82
2023/09/13 05:33:37;;;;;;;6.43;2.92;;;14.30;99.90;;;;;;5079831;28;20484;-82
2023/09/13 05:36:12;;;;;;;4.07;2.55;;;14.30;99.90;;;;;;5062375;28;20059;-82
2023/09/13 05:38:38;;;;;;;5.20;2.60;;;14.30;99.90;;;;;;5079853;28;20149;-81
2023/09/13 05:41:07;;;;;;;4.10;2.40;;;14.30;99.90;;;;;;5079410;28;20489;-82
2023/09/13 05:43:40;;;;;;;3.33;2.17;;;14.30;99.90;;;;;;5078784;28;20021;-82
2023/09/13 05:46:07;;;;;;;3.53;2.28;;;14.30;99.90;;;;;;5067382;28;20072;-81
2023/09/13 05:48:33;;;;;;;3.45;2.33;;;14.40;99.90;;;;;;5048548;28;20034;-81
2023/09/13 05:50:59;;;;;;;4.45;1.90;;;14.40;99.90;;;;;;5071715;28;20029;-81
2023/09/13 05:53:25;;;;;;;6.03;2.00;;;14.40;99.90;;;;;;5079937;28;20027;-81
2023/09/13 05:55:51;;;;;;;3.35;1.77;;;14.40;99.90;;;;;;5078852;28;20032;-81
2023/09/13 05:58:17;;;;;;;3.10;1.75;;;14.50;99.90;;;;;;5060082;28;20087;-81
2023/09/13 06:00:48;;;;;;;2.38;1.40;;;14.50;99.90;;;;;;5079445;28;20051;-81
2023/09/13 06:03:16;;;;;;;2.58;1.50;;;14.50;99.90;;;;;;5068425;28;20021;-81
2023/09/13 06:05:42;;;;;;;2.92;1.75;;;14.60;99.90;;;;;;5040196;28;20033;-81
2023/09/13 06:08:08;;;;;;;3.72;1.63;;;14.60;99.90;;;;;;5058159;28;20452;-82
2023/09/13 06:10:33;;;;;;;5.38;1.70;;;14.60;99.90;;;;;;5056735;28;20060;-82
2023/09/13 06:12:59;;;;;;;4.88;2.00;;;14.60;99.90;;;;;;5039029;28;20037;-82
2023/09/13 06:15:25;;;;;;;3.67;2.08;;;14.60;99.90;;;;;;5056014;28;20083;-82
2023/09/13 06:17:54;;;;;;;3.50;1.90;;;14.60;99.90;;;;;;5055958;28;20025;-81
2023/09/13 06:20:21;;;;;;;3.30;1.90;;;14.60;99.90;;;;;;5051814;28;20031;-82
2023/09/13 06:22:46;;;;;;;3.08;1.92;;;14.60;99.90;;;;;;5062666;28;20017;-82
2023/09/13 06:25:12;;;;;;;2.78;1.80;;;14.60;99.90;;;;;;5059365;28;20056;-81
2023/09/13 06:27:38;;;;;;;4.60;2.70;;;14.70;99.90;;;;;;5064861;28;20038;-78
2023/09/13 06:30:04;;;;;;;4.32;2.70;;;14.80;99.90;;;;;;5083875;28;20036;-80
2023/09/13 06:32:30;;;;;;;4.95;3.15;;;14.80;99.90;;;;;;5082444;28;20040;-81
2023/09/13 06:34:58;;;;;;;4.32;3.08;;;14.80;99.90;;;;;;5084050;28;20055;-80
2023/09/13 06:37:25;;;;;;;5.70;3.20;;;14.80;99.90;;;;;;5065935;28;20025;-80
2023/09/13 06:39:51;;;;;;;5.70;2.63;;;14.90;99.90;;;;;;5084428;28;20028;-80
2023/09/13 06:42:16;;;;;;;4.00;2.63;;;14.90;99.90;;;;;;5067011;28;20161;-80
2023/09/13 06:44:42;;;;;;;3.75;2.40;;;14.90;99.90;;;;;;5090928;28;20028;-80
2023/09/13 06:47:08;;;;;;;5.68;2.88;;;15.00;99.90;;;;;;5072933;28;20044;-79
2023/09/13 06:49:35;;;;;;;3.90;2.70;;;15.00;99.90;;;;;;5066984;28;20054;-80
2023/09/13 06:52:01;;;;;;;5.30;2.40;;;15.00;99.90;;;;;;5083372;28;20046;-80
2023/09/13 06:54:27;;;;;;;5.07;2.40;;;14.90;99.90;;;;;;5084613;28;20107;-80
2023/09/13 06:56:53;;;;;;;3.33;2.38;;;14.90;99.90;;;;;;5083817;28;20369;-79
2023/09/13 06:59:22;;;;;;;3.38;2.08;;;14.90;99.90;;;;;;5084459;28;20028;-80
2023/09/13 07:01:47;;;;;;;3.40;2.30;;;14.90;99.90;;;;;;5087933;28;20055;-80
2023/09/13 07:04:13;;;;;;;4.10;2.10;;;14.90;99.90;;;;;;5087600;28;20029;-80
2023/09/13 07:06:40;;;;;;;4.78;2.45;;;15.00;99.90;;;;;;5087215;28;20032;-80
2023/09/13 07:09:06;;;;;;;3.58;2.30;;;15.00;99.90;;;;;;5087793;28;20024;-80
2023/09/13 07:11:31;;;;;;;3.05;2.00;;;15.10;99.90;;;;;;5069165;28;20493;-80
2023/09/13 07:13:59;;;;;;;6.95;3.50;;;15.10;99.90;;;;;;5087297;28;20108;-80
2023/09/13 07:16:25;;;;;;;4.90;2.83;;;15.20;99.90;;;;;;5070233;28;20021;-80
2023/09/13 07:18:51;;;;;;;4.45;2.70;;;15.20;99.90;;;;;;5088057;28;20044;-80
2023/09/13 07:21:17;;;;;;;7.57;2.97;;;15.20;99.90;;;;;;5069890;28;20031;-80
2023/09/13 07:23:44;;;;;;;6.57;2.97;;;15.40;99.90;;;;;;5088236;28;20029;-80
2023/09/13 07:26:09;;;;;;;3.95;2.60;;;15.40;99.90;;;;;;5054093;28;20025;-80
2023/09/13 07:28:36;;;;;;;4.72;2.45;;;15.50;99.90;;;;;;5087474;28;20036;-80
2023/09/13 07:31:09;;;;;;;2.92;2.10;;;15.40;99.90;;;;;;5069888;28;20047;-80
2023/09/13 07:33:35;;;;;;;5.00;2.78;;;15.40;99.90;;;;;;5086399;28;20067;-80
2023/09/13 07:36:01;;;;;;;7.40;2.58;;;15.50;99.90;;;;;;5068180;28;20115;-80
2023/09/13 07:38:27;;;;;;;6.43;2.70;;;15.50;99.90;;;;;;5085722;28;20048;-80
2023/09/13 07:40:53;;;;;;;5.43;3.03;;;15.60;99.90;;;;;;5083242;28;20039;-81
2023/09/13 07:43:18;;;;;;;4.20;2.90;;;15.60;99.90;;;;;;5083669;28;20028;-81
2023/09/13 07:45:46;;;;;;;4.05;2.60;;;15.60;99.90;;;;;;5083672;28;20020;-81
2023/09/13 07:48:11;;;;;;;3.90;2.72;;;15.70;99.90;;;;;;5083186;28;20029;-81
2023/09/13 07:50:40;;;;;;;4.38;2.58;;;15.70;99.90;;;;;;5065424;28;20028;-81
2023/09/13 07:53:12;;;;;;;3.85;2.50;;;15.80;99.90;;;;;;5084530;28;20109;-81
2023/09/13 07:55:38;;;;;;;3.70;2.65;;;15.90;99.90;;;;;;5083927;28;20044;-80
2023/09/13 07:58:05;;;;;;;5.30;2.55;;;15.90;99.90;;;;;;5083547;28;20021;-80
2023/09/13 08:00:31;;;;;;;3.50;2.65;;;16.00;99.90;;;;;;5083264;28;20024;-80
2023/09/13 08:03:01;;;;;;;6.22;2.88;;;16.00;99.90;;;;;;5083459;28;20495;-81
2023/09/13 08:05:27;;;;;;;5.15;2.90;;;16.20;99.90;;;;;;5083553;28;20396;-81
2023/09/13 08:07:54;;;;;;;6.53;2.80;;;16.20;99.90;;;;;;5083813;28;20028;-80
2023/09/13 08:10:21;;;;;;;4.07;2.55;;;16.20;99.90;;;;;;5083305;28;20028;-81
2023/09/13 08:12:47;;;;;;;5.30;2.88;;;16.30;99.90;;;;;;5082572;28;20051;-80
2023/09/13 08:15:13;;;;;;;6.90;3.05;;;16.40;99.90;;;;;;5078937;28;20040;-80
2023/09/13 08:17:39;;;;;;;6.63;2.63;;;16.30;99.90;;;;;;5055749;28;20024;-80
2023/09/13 08:20:08;;;;;;;4.40;2.88;;;16.40;99.90;;;;;;5069752;28;20035;-80
2023/09/13 08:22:35;;;;;;;6.60;2.92;;;16.40;99.90;;;;;;5067082;28;20480;-81
2023/09/13 08:25:00;;;;;;;5.50;2.80;;;16.40;99.90;;;;;;5064505;28;21679;-80
2023/09/13 08:27:26;;;;;;;4.15;2.85;;;16.50;99.90;;;;;;5035357;28;20033;-80
2023/09/13 08:29:53;;;;;;;4.75;2.88;;;16.50;99.90;;;;;;5063937;28;20101;-81
2023/09/13 08:32:19;;;;;;;5.40;3.00;;;16.60;99.90;;;;;;5065518;28;20025;-80
2023/09/13 08:34:45;;;;;;;5.45;2.90;;;16.70;99.90;;;;;;5083644;28;20035;-80
2023/09/13 08:37:10;;;;;;;5.70;2.80;;;16.80;99.90;;;;;;5049358;28;20024;-80
2023/09/13 08:39:36;;;;;;;6.35;2.90;;;17.00;99.90;;;;;;5066585;28;20029;-80
2023/09/13 08:42:02;;;;;;;5.45;2.60;;;17.10;99.90;;;;;;5065902;28;20025;-80
2023/09/13 08:44:30;;;;;;;5.63;2.72;;;17.30;99.90;;;;;;5083978;28;20404;-81
2023/09/13 08:46:58;;;;;;;5.20;2.65;;;17.30;99.90;;;;;;5084128;28;20048;-80
2023/09/13 08:49:24;;;;;;;3.85;2.40;;;17.50;99.90;;;;;;5083300;28;20507;-81
2023/09/13 08:51:52;;;;;;;3.75;2.58;;;17.60;99.90;;;;;;5082785;28;20033;-80
2023/09/13 08:54:18;;;;;;;5.50;2.60;;;17.60;99.90;;;;;;5083196;28;20078;-80
2023/09/13 08:56:45;;;;;;;5.43;3.17;;;17.70;99.90;;;;;;5065734;28;20029;-81
2023/09/13 08:59:16;;;;;;;5.60;2.72;;;17.80;99.90;;;;;;5084657;28;20028;-80
2023/09/13 09:01:49;;;;;;;3.58;2.72;;;18.00;99.90;;;;;;5084139;28;20017;-80
2023/09/13 09:04:19;;;;;;;5.35;2.40;;;18.10;99.90;;;;;;5083395;28;20024;-80
2023/09/13 09:06:45;;;;;;;6.03;2.92;;;18.30;99.90;;;;;;5066032;28;20028;-80
2023/09/13 09:09:19;;;;;;;4.60;3.08;;;18.30;99.90;;;;;;5082526;28;20075;-80
2023/09/13 09:11:51;;;;;;;5.50;2.83;;;18.40;99.90;;;;;;5082850;28;20063;-80
2023/09/13 09:14:19;;;;;;;4.10;3.08;;;18.40;99.90;;;;;;5083122;28;20032;-80
2023/09/13 09:16:48;;;;;;;3.83;2.95;;;18.50;99.90;;;;;;5082672;28;20013;-80
2023/09/13 09:19:14;;;;;;;4.40;2.88;;;18.50;99.90;;;;;;5083172;28;20040;-80
2023/09/13 09:21:40;;;;;;;3.88;2.75;;;18.50;99.90;;;;;;5082628;28;20040;-80
2023/09/13 09:24:06;;;;;;;5.60;2.88;;;18.60;99.90;;;;;;5080348;28;20395;-80
2023/09/13 09:26:32;;;;;;;4.82;2.60;;;18.60;99.90;;;;;;5065190;28;20028;-80
2023/09/13 09:29:14;;;;;;;4.50;3.33;;;18.70;99.90;;;;;;5065407;28;20035;-80
2023/09/13 09:31:40;;;;;;;4.35;2.88;;;18.80;99.90;;;;;;5063343;28;20059;-81
2023/09/13 09:34:08;;;;;;;4.95;3.15;;;18.80;99.90;;;;;;5077659;28;20056;-80
2023/09/13 09:36:44;;;;;;;6.32;3.00;;;18.80;99.90;;;;;;5081063;28;20388;-80
2023/09/13 09:39:11;;;;;;;3.88;2.70;;;18.80;99.90;;;;;;5081996;28;20025;-81
2023/09/13 09:41:38;;;;;;;6.25;3.67;;;18.90;99.90;;;;;;5082826;28;20040;-80
2023/09/13 09:44:05;;;;;;;4.30;2.88;;;19.00;99.90;;;;;;5081327;28;20024;-80
2023/09/13 09:46:31;;;;;;;3.65;2.67;;;19.00;99.90;;;;;;5079880;28;20029;-80
2023/09/13 09:48:58;;;;;;;5.65;2.95;;;19.20;99.90;;;;;;5079248;28;20029;-80
2023/09/13 09:51:24;;;;;;;6.03;3.13;;;19.40;99.90;;;;;;5077634;28;20024;-80
2023/09/13 09:53:50;;;;;;;7.93;3.22;;;19.60;99.90;;;;;;5061587;28;20048;-80
2023/09/13 09:56:16;;;;;;;5.13;3.28;;;19.70;99.90;;;;;;5062058;28;20055;-80
2023/09/13 09:58:45;;;;;;;6.45;3.20;;;19.70;99.90;;;;;;5078672;28;20081;-80
2023/09/13 10:01:16;;;;;;;5.05;3.05;;;19.70;99.90;;;;;;5077257;28;20358;-80
2023/09/13 10:03:42;;;;;;;6.72;2.85;;;19.80;99.90;;;;;;5077739;28;20400;-80
2023/09/13 10:06:13;;;;;;;5.32;3.30;;;19.90;99.90;;;;;;5077694;28;20032;-80
2023/09/13 10:08:43;;;;;;;4.93;3.17;;;19.90;99.90;;;;;;5059595;28;20033;-81
2023/09/13 10:11:10;;;;;;;5.20;3.20;;;20.00;99.90;;;;;;5076452;28;20024;-81
2023/09/13 10:13:37;;;;;;;5.65;3.28;;;20.00;99.90;;;;;;5059230;28;20029;-82
2023/09/13 10:16:05;;;;;;;6.50;3.90;;;20.00;99.90;;;;;;5060025;28;20028;-81
2023/09/13 10:18:35;;;;;;;6.15;3.15;;;20.00;99.90;;;;;;5065386;28;20092;-78
2023/09/13 10:21:06;;;;;;;4.93;3.28;;;20.10;99.90;;;;;;5072876;28;20040;-78
2023/09/13 10:23:44;;;;;;;4.32;3.40;;;20.30;99.90;;;;;;5067542;28;20063;-80
2023/09/13 10:26:13;;;;;;;6.03;3.50;;;20.40;99.90;;;;;;5074548;28;20029;-80
2023/09/13 10:28:43;;;;;;;6.10;3.67;;;20.50;99.90;;;;;;5071437;28;20088;-79
2023/09/13 10:31:19;;;;;;;8.18;3.42;;;20.70;99.90;;;;;;5074800;28;20029;-79
2023/09/13 10:33:51;;;;;;;5.60;3.30;;;20.70;99.90;;;;;;5077207;28;20534;-79
2023/09/13 10:36:50;;;;;;;4.93;3.22;;;20.80;99.90;;;;;;5064628;28;20028;-79
2023/09/13 10:39:21;;;;;;;5.38;3.47;;;20.90;99.90;;;;;;5046141;28;20032;-79
2023/09/13 10:41:57;;;;;;;4.82;3.58;;;21.00;99.90;;;;;;5080722;28;20020;-79
2023/09/13 10:44:23;;;;;;;4.80;3.80;;;21.00;99.90;;;;;;5081112;28;20151;-79
2023/09/13 10:46:49;;;;;;;6.75;3.60;;;21.00;99.90;;;;;;5062434;28;20025;-79
2023/09/13 10:49:15;;;;;;;5.25;3.50;;;20.90;99.90;;;;;;5077430;28;20028;-78
2023/09/13 10:51:43;;;;;;;5.35;3.22;;;20.90;99.90;;;;;;5077488;28;20035;-79
2023/09/13 10:54:09;;;;;;;6.25;3.90;;;20.90;99.90;;;;;;5061252;28;20504;-80
2023/09/13 10:56:35;;;;;;;3.63;3.17;;;20.80;99.90;;;;;;5075353;28;20027;-82
2023/09/13 10:59:02;;;;;;;4.30;2.97;;;20.70;99.90;;;;;;5074791;28;20082;-81
2023/09/13 11:01:28;;;;;;;3.92;3.05;;;20.70;99.90;;;;;;5057404;28;20480;-78
2023/09/13 11:03:55;;;;;;;4.30;3.20;;;20.70;99.90;;;;;;5072918;28;20511;-76
2023/09/13 11:06:22;;;;;;;5.55;3.40;;;20.70;99.90;;;;;;5073479;28;20024;-76
2023/09/13 11:08:48;;;;;;;6.20;3.40;;;20.70;99.90;;;;;;5073209;28;20085;-76
2023/09/13 11:11:18;;;;;;;4.78;3.25;;;20.60;99.90;;;;;;5055229;28;20039;-77
2023/09/13 11:13:50;;;;;;;5.53;3.38;;;20.60;99.90;;;;;;5073405;28;20044;-77
2023/09/13 11:16:17;;;;;;;4.05;3.00;;;20.60;99.90;;;;;;5073180;28;20028;-76
2023/09/13 11:18:51;;;;;;;4.68;3.40;;;20.50;99.90;;;;;;5054930;28;20100;-77
2023/09/13 11:21:19;;;;;;;3.88;3.05;;;20.50;99.90;;;;;;5072981;28;20050;-77
2023/09/13 11:23:49;;;;;;;4.10;2.80;;;20.40;99.90;;;;;;5055103;28;20101;-77
2023/09/13 11:26:15;;;;;;;;;;;20.40;99.90;;;;;;5073681;28;20020;-77
2023/09/13 11:28:46;;;;;;;5.13;3.08;;;20.30;99.90;;;;;;5073232;28;19908;-77
2023/09/13 11:31:17;;;;;;;4.78;3.35;;;20.20;99.90;;;;;;5055001;28;20047;-77
2023/09/13 11:33:59;;;;;;;4.95;3.58;;;20.20;99.90;;;;;;5072712;28;20082;-77
2023/09/13 11:36:26;;;;;;;5.38;3.22;;;20.20;99.90;;;;;;5072705;28;20024;-77
2023/09/13 11:38:53;;;;;;;4.32;3.38;;;20.10;99.90;;;;;;5059398;28;20018;-77
2023/09/13 11:41:20;;;;;;;5.60;3.30;;;20.10;99.90;;;;;;5061574;28;20029;-77
2023/09/13 11:43:48;;;;;;;4.38;3.30;;;20.10;99.90;;;;;;5060390;28;20029;-77
2023/09/13 11:46:17;;;;;;;5.70;4.20;;;20.10;99.90;;;;;;5056957;28;20485;-76
2023/09/13 11:48:47;;;;;;;5.45;4.00;;;20.10;99.90;;;;;;5056535;28;20115;-76
2023/09/13 11:51:15;;;;;;;5.30;4.47;;;20.00;99.90;;;;;;5056175;28;20393;-80
2023/09/13 11:53:42;;;;;;;5.13;3.83;;;19.90;99.90;;;;;;5055310;28;20055;-77
2023/09/13 11:56:28;;;;;;;5.07;3.78;;;19.90;99.90;;;;;;5054759;28;20116;-77
2023/09/13 11:58:58;;;;;;;4.80;3.92;;;19.90;99.90;;;;;;5071373;28;20067;-81
2023/09/13 12:01:24;;;;;;;6.65;4.32;;;19.90;99.90;;;;;;5082014;28;20364;-82
2023/09/13 12:03:51;;;;;;;7.03;4.55;;;19.90;99.90;;;;;;5077420;28;20021;-78
2023/09/13 12:06:18;;;;;;;6.15;4.50;;;19.90;99.90;;;;;;5057570;28;20145;-79
2023/09/13 12:08:47;;;;;;;10.20;4.22;;;19.90;99.90;;;;;;5078103;28;20527;-79
2023/09/13 12:11:13;;;;;;;7.10;4.82;;;19.80;99.90;;;;;;5061699;28;20028;-79
2023/09/13 12:13:40;;;;;;;6.43;4.50;;;19.70;99.90;;;;;;5077541;28;20028;-79
2023/09/13 12:16:06;;;;;;;6.53;4.18;;;19.60;99.90;;;;;;5076708;28;20029;-79
2023/09/13 12:18:32;;;;;;;7.40;4.63;;;19.60;99.90;;;;;;5053803;28;20017;-79
2023/09/13 12:20:58;;;;;;;8.73;4.63;;;19.60;99.90;;;;;;5069561;28;20420;-79
2023/09/13 12:23:27;;;;;;;6.22;4.55;;;19.60;99.90;;;;;;5069812;28;20032;-79
2023/09/13 12:25:57;;;;;;;7.70;4.93;;;19.60;99.90;;;;;;5061949;28;20029;-79
2023/09/13 12:28:33;;;;;;;5.47;3.97;;;19.60;99.90;;;;;;5079916;28;20035;-79
2023/09/13 12:31:03;;;;;;;5.35;4.18;;;19.60;99.90;;;;;;5074796;28;20502;-79
2023/09/13 12:33:28;;;;;;;6.45;4.15;;;19.50;99.90;;;;;;5079049;28;20059;-79
2023/09/13 12:35:54;;;;;;;5.53;4.22;;;19.60;99.90;;;;;;5078944;28;20029;-79
2023/09/13 12:38:21;;;;;;;6.95;4.20;;;19.60;99.90;;;;;;5078830;28;20505;-79
2023/09/13 12:40:54;;;;;;;5.68;4.55;;;19.60;99.90;;;;;;5078518;28;20522;-79
2023/09/13 12:43:29;;;;;;;6.32;4.30;;;19.60;99.90;;;;;;5078982;28;20070;-79
2023/09/13 12:45:55;;;;;;;6.80;4.57;;;19.60;99.90;;;;;;5070908;28;20029;-79
2023/09/13 12:48:21;;;;;;;5.97;4.40;;;19.60;99.90;;;;;;5050926;28;20032;-79
2023/09/13 12:50:47;;;;;;;5.38;3.95;;;19.60;99.90;;;;;;5075458;28;20029;-79